Time;durP1;ratioP1;P1;durP2;ratioP2;P2;SDS_P1;SDS_P2;PMS_P1;PMS_P2;Temp;Humidity;BMP_temperature;BMP_pressure;BME280_temperature;BME280_humidity;BME280_pressure;Samples;Min_cycle;Max_cycle;Signal;HPM_P1;HPM_P2
2023/04/08 00:00:09;;;;;;;;;45.00;38.00;;;;;7.38;63.70;98950.69;6225927;27;98333;-61
2023/04/08 00:03:14;;;;;;;;;45.00;37.40;;;;;7.54;63.50;98953.06;6187344;27;97421;-62
2023/04/08 00:06:19;;;;;;;;;47.50;36.00;;;;;7.48;63.21;98953.03;6185121;28;96986;-61
2023/04/08 00:09:23;;;;;;;;;44.20;36.00;;;;;7.43;63.26;98961.66;6184773;28;96378;-61
2023/04/08 00:12:26;;;;;;;;;44.00;36.25;;;;;7.30;63.43;98957.06;6251541;27;96599;-61
2023/04/08 00:15:30;;;;;;;;;47.60;38.00;;;;;7.12;63.63;98931.81;6184876;28;96812;-61
2023/04/08 00:18:33;;;;;;;;;50.80;39.20;;;;;7.31;63.39;98963.28;6255200;27;96774;-61
2023/04/08 00:21:37;;;;;;;;;47.60;38.00;;;;;7.11;64.04;98956.97;6187656;28;96309;-61
2023/04/08 00:24:41;;;;;;;;;46.60;38.00;;;;;7.10;64.30;98958.81;6187590;28;96393;-61
2023/04/08 00:27:44;;;;;;;;;47.60;39.00;;;;;7.04;64.31;98951.56;6188184;28;96242;-61
2023/04/08 00:30:47;;;;;;;;;49.00;40.00;;;;;7.15;64.26;98966.28;6255403;27;96717;-61
2023/04/08 00:33:51;;;;;;;;;47.80;39.40;;;;;7.23;63.75;98961.56;6256345;27;96361;-61
2023/04/08 00:36:56;;;;;;;;;45.00;35.40;;;;;7.20;63.38;98956.63;6238612;27;98757;-61
2023/04/08 00:39:59;;;;;;;;;47.00;36.40;;;;;7.31;63.24;98963.28;6189008;28;96237;-61
2023/04/08 00:43:03;;;;;;;;;44.00;36.00;;;;;7.39;62.87;98966.59;6189064;28;96270;-61
2023/04/08 00:46:06;;;;;;;;;44.20;35.20;;;;;7.28;62.71;98961.81;6255735;27;96237;-61
2023/04/08 00:49:11;;;;;;;;;45.00;37.75;;;;;7.38;62.44;98967.63;6255218;27;96291;-60
2023/04/08 00:52:15;;;;;;;;;44.00;35.00;;;;;7.41;62.25;98966.41;6256079;27;96250;-61
2023/04/08 00:55:19;;;;;;;;;47.00;38.40;;;;;7.33;62.23;98963.91;6316877;27;96348;-61
2023/04/08 00:58:23;;;;;;;;;47.00;38.00;;;;;7.13;62.71;98963.81;6241754;27;96270;-61
2023/04/08 01:01:32;;;;;;;;;45.60;38.00;;;;;7.02;63.02;98976.94;6188525;28;96634;-61
2023/04/08 01:04:49;;;;;;;;;47.00;38.60;;;;;6.82;63.42;98963.41;6188722;28;96200;-60
2023/04/08 01:07:55;;;;;;;;;48.50;38.75;;;;;6.94;63.14;98970.69;6243617;27;98347;-61
2023/04/08 01:11:03;;;;;;;;;47.00;36.80;;;;;6.88;63.21;98967.97;6256429;27;96188;-61
2023/04/08 01:14:09;;;;;;;;;49.00;39.00;;;;;6.84;63.59;98970.19;6188961;28;96255;-61
2023/04/08 01:17:14;;;;;;;;;45.20;37.80;;;;;6.88;63.57;98976.84;6234777;27;96904;-60
2023/04/08 01:20:19;;;;;;;;;46.20;38.00;;;;;6.85;63.64;98982.56;6163876;28;96571;-61
2023/04/08 01:23:33;;;;;;;;;48.40;39.00;;;;;6.78;63.72;98979.03;6247453;27;96325;-61
2023/04/08 01:26:39;;;;;;;;;46.50;38.00;;;;;6.82;63.74;98979.47;6163338;28;96183;-61
2023/04/08 01:29:44;;;;;;;;;49.50;39.75;;;;;6.86;63.18;98986.91;6186595;28;96306;-62
2023/04/08 01:32:50;;;;;;;;;46.00;38.00;;;;;6.87;63.20;98991.25;6188352;28;96294;-61
2023/04/08 01:35:57;;;;;;;;;46.60;36.00;;;;;6.78;63.62;98984.41;6272557;27;96276;-61
2023/04/08 01:39:04;;;;;;;;;42.25;36.00;;;;;6.86;64.04;98986.09;6244667;27;96672;-61
2023/04/08 01:42:11;;;;;;;;;46.20;38.00;;;;;6.90;63.55;98990.03;6247275;27;96219;-61
2023/04/08 01:45:15;;;;;;;;;47.00;39.00;;;;;6.91;63.77;98987.16;6164000;28;96256;-61
2023/04/08 01:48:19;;;;;;;;;47.40;39.00;;;;;7.02;63.06;98995.69;6163771;28;96547;-61
2023/04/08 01:51:23;;;;;;;;;43.40;36.00;;;;;6.92;63.32;99002.22;6228718;27;98379;-62
2023/04/08 01:54:26;;;;;;;;;47.00;37.00;;;;;6.91;63.01;98997.88;6230491;27;96240;-62
2023/04/08 01:57:35;;;;;;;;;43.20;34.40;;;;;6.90;63.16;98990.88;6251539;27;97743;-62
2023/04/08 02:00:41;;;;;;;;;44.50;35.75;;;;;6.86;63.43;98997.63;6188002;28;96570;-61
2023/04/08 02:03:46;;;;;;;;;47.00;38.00;;;;;6.95;63.01;98988.44;6254986;27;96330;-62
2023/04/08 02:06:50;;;;;;;;;45.00;38.00;;;;;6.98;62.94;98989.91;6175033;27;96486;-61
2023/04/08 02:09:53;;;;;;;;;43.80;35.40;;;;;6.83;63.00;98995.38;6272090;27;96309;-61
2023/04/08 02:12:58;;;;;;;;;42.80;34.60;;;;;6.91;63.20;98999.72;6254783;27;96443;-61
2023/04/08 02:16:09;;;;;;;;;43.40;34.60;;;;;6.80;63.11;99006.44;6253890;27;96805;-62
2023/04/08 02:19:24;;;;;;;;;39.75;35.00;;;;;6.86;62.87;99011.03;6254509;27;96423;-62
2023/04/08 02:22:36;;;;;;;;;45.75;35.00;;;;;6.80;63.13;99014.50;6188161;28;96692;-61
2023/04/08 02:25:43;;;;;;;;;42.50;35.00;;;;;6.80;63.19;99009.13;6187510;28;96551;-62
2023/04/08 02:28:49;;;;;;;;;43.25;35.00;;;;;6.84;63.13;99020.31;6187130;28;96202;-61
2023/04/08 02:31:58;;;;;;;;;45.00;36.00;;;;;6.75;63.23;99010.72;6255053;27;96320;-61
2023/04/08 02:35:03;;;;;;;;;45.40;36.00;;;;;6.87;63.00;99022.59;6254233;27;98336;-61
2023/04/08 02:38:07;;;;;;;;;36.40;31.40;;;;;6.76;63.24;99018.59;6254154;27;96575;-61
2023/04/08 02:41:10;;;;;;;;;40.50;33.50;;;;;6.79;63.05;99014.72;6234604;27;96630;-61
2023/04/08 02:44:15;;;;;;;;;36.00;32.00;;;;;6.63;63.39;99018.50;6247246;27;98895;-61
2023/04/08 02:47:18;;;;;;;;;38.20;30.40;;;;;6.72;63.28;99011.13;6267447;27;96492;-61
2023/04/08 02:50:21;;;;;;;;;36.25;32.00;;;;;6.71;63.32;99018.34;6187749;28;96286;-61
2023/04/08 02:53:25;;;;;;;;;40.60;34.60;;;;;6.70;63.33;99023.88;6254688;27;96196;-61
2023/04/08 02:56:28;;;;;;;;;40.75;33.50;;;;;6.63;63.79;99028.38;6272130;27;96547;-61
2023/04/08 02:59:36;;;;;;;;;37.00;33.00;;;;;6.57;64.32;99021.94;6167548;28;96285;-61
2023/04/08 03:02:39;;;;;;;;;36.00;32.00;;;;;6.48;64.59;99028.44;6247766;27;96217;-60
2023/04/08 03:05:43;;;;;;;;;43.00;35.60;;;;;6.44;64.74;99030.69;6164358;28;96322;-61
2023/04/08 03:08:46;;;;;;;;;37.40;32.00;;;;;6.41;65.01;99028.38;6178004;28;96066;-60
2023/04/08 03:11:52;;;;;;;;;35.40;30.00;;;;;6.21;65.44;99027.34;6228793;27;96383;-60
2023/04/08 03:14:56;;;;;;;;;31.80;28.80;;;;;6.15;65.85;99041.50;6317129;27;96835;-60
2023/04/08 03:18:00;;;;;;;;;31.40;30.00;;;;;6.20;65.77;99039.09;6254558;27;98431;-60
2023/04/08 03:21:03;;;;;;;;;32.00;29.20;;;;;6.14;66.20;99041.69;6188347;28;96214;-61
2023/04/08 03:24:07;;;;;;;;;35.00;32.00;;;;;6.15;66.01;99036.16;6186762;28;96139;-61
2023/04/08 03:27:11;;;;;;;;;32.60;30.60;;;;;6.23;65.76;99037.88;6253378;27;96869;-61
2023/04/08 03:30:16;;;;;;;;;34.50;29.75;;;;;6.29;65.63;99039.78;6217862;27;96511;-61
2023/04/08 03:33:19;;;;;;;;;33.60;29.00;;;;;6.21;65.35;99046.09;6257342;27;98374;-61
2023/04/08 03:36:22;;;;;;;;;33.00;29.60;;;;;6.08;65.95;99056.66;6185742;28;96262;-60
2023/04/08 03:39:26;;;;;;;;;31.75;28.50;;;;;5.99;66.09;99029.19;6214675;27;96241;-60
2023/04/08 03:42:29;;;;;;;;;38.80;33.80;;;;;6.16;65.58;99045.81;6253642;27;96014;-61
2023/04/08 03:45:34;;;;;;;;;34.40;30.00;;;;;6.29;65.33;99058.53;6253059;27;96245;-61
2023/04/08 03:48:37;;;;;;;;;33.80;30.00;;;;;6.29;64.96;99056.69;6185808;28;96343;-61
2023/04/08 03:51:40;;;;;;;;;35.25;31.00;;;;;6.28;64.62;99060.38;6185100;28;96330;-61
2023/04/08 03:54:43;;;;;;;;;30.80;27.00;;;;;6.25;64.80;99059.94;6186782;28;96367;-61
2023/04/08 03:57:47;;;;;;;;;32.20;29.00;;;;;6.23;64.63;99060.13;6253875;27;96742;-60
2023/04/08 04:00:51;;;;;;;;;33.00;30.00;;;;;6.28;64.56;99063.06;6185945;28;96362;-61
2023/04/08 04:03:55;;;;;;;;;35.00;31.00;;;;;6.28;64.49;99067.59;6243407;27;96892;-60
2023/04/08 04:06:58;;;;;;;;;34.60;32.00;;;;;6.40;63.96;99074.91;6248088;27;96791;-61
2023/04/08 04:10:02;;;;;;;;;31.40;29.60;;;;;6.35;64.12;99076.53;6186190;28;96839;-61
2023/04/08 04:13:05;;;;;;;;;33.20;30.60;;;;;6.50;63.75;99082.63;6302874;27;96210;-61
2023/04/08 04:16:10;;;;;;;;;31.40;29.00;;;;;6.40;63.97;99082.16;6315703;27;96307;-61
2023/04/08 04:19:14;;;;;;;;;32.00;29.00;;;;;6.48;63.94;99087.38;6229147;27;96618;-61
2023/04/08 04:22:18;;;;;;;;;33.40;30.00;;;;;6.66;63.87;99093.09;6186053;28;96322;-60
2023/04/08 04:25:21;;;;;;;;;35.00;32.00;;;;;6.64;63.23;99088.97;6219659;27;96280;-61
2023/04/08 04:28:25;;;;;;;;;32.20;29.60;;;;;6.72;63.15;99097.69;6251509;27;96234;-61
2023/04/08 04:31:29;;;;;;;;;29.60;27.40;;;;;6.69;62.98;99098.09;6269616;27;96310;-60
2023/04/08 04:34:33;;;;;;;;;35.60;31.00;;;;;6.75;63.03;99108.03;6210600;27;96310;-61
2023/04/08 04:37:36;;;;;;;;;34.50;31.00;;;;;6.85;62.79;99102.34;6181722;27;97555;-61
2023/04/08 04:40:39;;;;;;;;;35.00;31.00;;;;;6.89;62.48;99109.00;6185113;28;96144;-61
2023/04/08 04:43:42;;;;;;;;;27.40;25.80;;;;;6.78;62.10;99106.81;6252154;27;99051;-61
2023/04/08 04:46:47;;;;;;;;;27.40;25.00;;;;;6.75;62.34;99117.91;6251550;27;96756;-61
2023/04/08 04:49:51;;;;;;;;;33.00;29.40;;;;;6.78;62.42;99121.06;6265964;27;96284;-61
2023/04/08 04:52:55;;;;;;;;;27.80;25.80;;;;;6.65;62.57;99101.31;6295688;27;98795;-61
2023/04/08 04:56:00;;;;;;;;;33.75;29.75;;;;;6.82;62.45;99121.50;6251874;27;96617;-61
2023/04/08 04:59:04;;;;;;;;;30.75;28.00;;;;;6.99;62.37;99124.75;6184347;28;96352;-61
2023/04/08 05:02:08;;;;;;;;;32.60;29.00;;;;;7.02;61.76;99125.19;6184210;27;96185;-61
2023/04/08 05:05:12;;;;;;;;;32.20;28.20;;;;;6.88;61.82;99128.78;6254750;27;96596;-61
2023/04/08 05:08:15;;;;;;;;;30.00;28.00;;;;;7.05;62.01;99130.16;6267910;27;96239;-60
2023/04/08 05:11:20;;;;;;;;;34.00;29.00;;;;;7.15;61.79;99127.97;6258686;27;96828;-61
2023/04/08 05:14:24;;;;;;;;;29.20;26.00;;;;;7.23;61.56;99129.69;6281346;27;98587;-62
2023/04/08 05:17:28;;;;;;;;;31.00;30.00;;;;;7.43;61.36;99133.34;6259497;27;96758;-61
2023/04/08 05:20:31;;;;;;;;;32.75;30.00;;;;;7.55;60.83;99141.69;6317168;27;96194;-61
2023/04/08 05:23:35;;;;;;;;;28.40;27.20;;;;;7.54;60.64;99143.53;6246101;27;97541;-61
2023/04/08 05:26:38;;;;;;;;;32.60;29.00;;;;;7.56;60.64;99141.50;6254614;27;96803;-61
2023/04/08 05:29:42;;;;;;;;;30.50;25.50;;;;;7.39;60.33;99143.63;6251813;27;96634;-61
2023/04/08 05:32:47;;;;;;;;;32.40;27.00;;;;;7.62;60.35;99150.63;6196455;27;96676;-62
2023/04/08 05:35:50;;;;;;;;;26.00;23.60;;;;;7.75;59.18;99148.84;6187598;28;96293;-61
2023/04/08 05:38:53;;;;;;;;;26.00;23.60;;;;;7.84;58.96;99165.59;6184247;27;96837;-62
2023/04/08 05:41:57;;;;;;;;;22.00;21.00;;;;;7.90;58.26;99148.72;6236508;27;97430;-61
2023/04/08 05:45:01;;;;;;;;;28.00;25.00;;;;;8.00;58.66;99159.09;6252494;27;98773;-60
2023/04/08 05:48:06;;;;;;;;;26.60;25.00;;;;;8.07;58.33;99166.16;6184112;28;96416;-60
2023/04/08 05:51:13;;;;;;;;;28.00;24.60;;;;;8.13;58.24;99162.66;6265992;27;96625;-62
2023/04/08 05:54:17;;;;;;;;;29.00;27.00;;;;;8.23;57.99;99168.50;6177389;27;96467;-61
2023/04/08 05:57:20;;;;;;;;;31.80;27.80;;;;;8.35;57.46;99176.03;6185415;28;96521;-61
2023/04/08 06:00:24;;;;;;;;;26.80;24.20;;;;;8.30;56.99;99181.19;6250573;27;97378;-61
2023/04/08 06:03:30;;;;;;;;;27.00;26.00;;;;;8.53;56.63;99187.06;6267109;27;96218;-61
2023/04/08 06:06:34;;;;;;;;;23.00;22.60;;;;;8.81;56.54;99197.69;6252243;27;96753;-61
2023/04/08 06:09:37;;;;;;;;;25.40;25.40;;;;;8.95;55.79;99204.75;6182050;28;96380;-61
2023/04/08 06:12:41;;;;;;;;;26.33;25.00;;;;;8.98;55.14;99204.34;6172856;28;96435;-63
2023/04/08 06:15:45;;;;;;;;;24.00;21.00;;;;;8.72;54.64;99209.66;6250721;27;96399;-63
2023/04/08 06:18:50;;;;;;;;;23.00;22.00;;;;;8.89;54.92;99214.47;6252095;27;96425;-63
2023/04/08 06:21:57;;;;;;;;;29.00;26.00;;;;;8.69;55.52;99210.91;6245225;27;98511;-62
2023/04/08 06:25:03;;;;;;;;;28.00;26.00;;;;;8.81;56.01;99222.69;6183532;28;96272;-63
2023/04/08 06:28:06;;;;;;;;;27.80;25.80;;;;;8.91;55.75;99223.16;6260693;27;98924;-63
2023/04/08 06:31:09;;;;;;;;;28.00;26.75;;;;;8.94;55.66;99230.00;6265505;27;96687;-63
2023/04/08 06:34:14;;;;;;;;;28.40;25.00;;;;;9.15;55.18;99227.13;6260605;27;97210;-63
2023/04/08 06:37:18;;;;;;;;;25.00;24.00;;;;;9.32;54.55;99222.19;6160730;28;96752;-64
2023/04/08 06:40:21;;;;;;;;;29.00;26.50;;;;;9.37;54.44;99212.47;6260729;27;97288;-63
2023/04/08 06:43:24;;;;;;;;;24.60;21.60;;;;;9.58;53.56;99230.28;6159370;28;96336;-63
2023/04/08 06:46:28;;;;;;;;;26.00;22.25;;;;;9.80;53.41;99229.03;6162483;28;96239;-64
2023/04/08 06:49:32;;;;;;;;;22.60;21.60;;;;;9.94;53.10;99230.69;6179920;28;96595;-63
2023/04/08 06:52:36;;;;;;;;;25.00;24.00;;;;;10.17;52.57;99232.94;6249862;27;96798;-63
2023/04/08 06:55:39;;;;;;;;;26.00;23.40;;;;;10.34;52.42;99234.16;6179802;28;96387;-63
2023/04/08 06:58:42;;;;;;;;;23.00;21.00;;;;;10.49;51.81;99231.22;6172880;27;96474;-63
2023/04/08 07:01:46;;;;;;;;;23.60;21.60;;;;;10.42;51.41;99231.22;6250847;27;96377;-64
2023/04/08 07:04:50;;;;;;;;;23.25;21.25;;;;;10.61;51.84;99231.34;6183839;28;96337;-63
2023/04/08 07:07:54;;;;;;;;;25.40;24.40;;;;;10.97;50.25;99233.47;6229266;27;96313;-63
2023/04/08 07:10:57;;;;;;;;;24.40;23.40;;;;;11.25;48.90;99240.16;6170545;28;96487;-63
2023/04/08 07:14:01;;;;;;;;;19.00;17.40;;;;;11.03;49.53;99238.84;6172791;28;96183;-63
2023/04/08 07:17:05;;;;;;;;;26.00;24.75;;;;;11.28;48.86;99241.59;6281018;27;98557;-63
2023/04/08 07:20:12;;;;;;;;;19.50;19.50;;;;;11.27;48.90;99229.16;6220598;27;98628;-64
2023/04/08 07:23:15;;;;;;;;;25.80;21.20;;;;;11.55;48.75;99236.84;6172430;28;97002;-64
2023/04/08 07:26:18;;;;;;;;;23.60;22.60;;;;;11.76;47.27;99239.19;6264501;27;96464;-63
2023/04/08 07:29:22;;;;;;;;;23.40;23.00;;;;;12.06;48.28;99242.88;6181873;28;97060;-63
2023/04/08 07:32:26;;;;;;;;;26.00;23.00;;;;;12.35;47.40;99249.44;6239544;27;97155;-63
2023/04/08 07:35:31;;;;;;;;;20.00;18.80;;;;;12.58;46.33;99260.41;6218168;27;96431;-64
2023/04/08 07:38:35;;;;;;;;;22.40;21.00;;;;;12.65;46.08;99262.22;6213005;27;97617;-63
2023/04/08 07:41:38;;;;;;;;;21.80;20.20;;;;;12.72;45.20;99255.66;6192012;27;96545;-63
2023/04/08 07:44:41;;;;;;;;;25.00;23.00;;;;;12.99;45.83;99264.31;6246701;27;96509;-63
2023/04/08 07:47:46;;;;;;;;;23.00;22.00;;;;;13.17;45.27;99258.03;6235763;27;96911;-63
2023/04/08 07:50:50;;;;;;;;;23.00;21.00;;;;;13.14;44.65;99259.34;6261044;27;97621;-63
2023/04/08 07:54:16;;;;;;;;;24.40;22.40;;;;;13.12;45.03;99268.72;6243865;27;99621;-63
2023/04/08 07:57:20;;;;;;;;;24.00;21.00;;;;;13.41;45.00;99267.91;6247886;27;96871;-64
2023/04/08 08:00:25;;;;;;;;;20.50;19.50;;;;;13.40;42.90;99268.97;6207314;27;96266;-63
2023/04/08 08:03:29;;;;;;;;;21.00;20.75;;;;;13.12;42.93;99271.44;6163290;28;98355;-63
2023/04/08 08:06:37;;;;;;;;;17.25;16.00;;;;;12.82;43.74;99271.38;6248960;27;96862;-63
2023/04/08 08:09:40;;;;;;;;;20.00;19.00;;;;;12.55;45.34;99276.28;6243624;27;98552;-64
2023/04/08 08:12:44;;;;;;;;;18.60;18.00;;;;;12.75;44.89;99274.19;6200059;27;97121;-61
2023/04/08 08:15:47;;;;;;;;;22.00;21.00;;;;;12.96;44.48;99265.56;6198762;27;97559;-61
2023/04/08 08:18:50;;;;;;;;;20.00;19.00;;;;;12.93;44.64;99270.63;6193849;27;96781;-61
2023/04/08 08:21:55;;;;;;;;;21.60;20.00;;;;;13.09;45.48;99266.47;6255444;27;96045;-61
2023/04/08 08:24:59;;;;;;;;;24.00;22.00;;;;;13.32;45.74;99277.41;6192134;27;96309;-62
2023/04/08 08:28:02;;;;;;;;;26.00;22.50;;;;;13.56;43.81;99276.44;6197865;27;96477;-61
2023/04/08 08:31:06;;;;;;;;;22.00;20.00;;;;;13.72;44.00;99275.78;6251151;27;96685;-61
2023/04/08 08:34:09;;;;;;;;;19.25;18.25;;;;;13.62;43.86;99278.22;6266659;27;96283;-61
2023/04/08 08:37:14;;;;;;;;;22.75;21.00;;;;;13.57;43.84;99274.56;6197653;27;96587;-60
2023/04/08 08:40:17;;;;;;;;;26.00;24.00;;;;;13.57;43.82;99278.09;6236352;27;97318;-61
2023/04/08 08:43:21;;;;;;;;;24.00;23.00;;;;;13.61;44.29;99286.56;6277940;27;96747;-61
2023/04/08 08:46:24;;;;;;;;;23.80;21.60;;;;;13.41;43.56;99289.56;6261198;27;96659;-61
2023/04/08 08:49:27;;;;;;;;;22.00;20.20;;;;;13.05;44.76;99281.50;6270475;27;98118;-61
2023/04/08 08:52:32;;;;;;;;;20.60;20.00;;;;;12.94;44.69;99280.41;6202980;27;96970;-61
2023/04/08 08:55:37;;;;;;;;;23.00;22.20;;;;;12.85;45.53;99282.56;6272877;27;96303;-61
2023/04/08 08:59:00;;;;;;;;;26.40;24.40;;;;;13.21;45.63;99289.84;6251198;27;96596;-61
2023/04/08 09:02:23;;;;;;;;;23.40;22.00;;;;;13.79;44.03;99281.91;6228672;27;96602;-61
2023/04/08 09:05:27;;;;;;;;;20.60;19.60;;;;;14.23;43.43;99285.97;6212570;27;96462;-61
2023/04/08 09:08:33;;;;;;;;;24.00;23.00;;;;;14.41;42.71;99276.91;6233335;27;96873;-62
2023/04/08 09:11:38;;;;;;;;;21.00;19.25;;;;;14.70;43.12;99294.94;6215686;27;96543;-61
2023/04/08 09:14:42;;;;;;;;;21.00;19.75;;;;;15.04;41.32;99300.53;6254206;27;96908;-61
2023/04/08 09:17:45;;;;;;;;;25.00;22.40;;;;;15.35;40.53;99296.50;6242757;27;96802;-61
2023/04/08 09:20:52;;;;;;;;;24.00;22.00;;;;;16.04;40.98;99306.22;6231564;27;96439;-61
2023/04/08 09:23:57;;;;;;;;;23.80;21.80;;;;;16.74;40.32;99301.06;6193490;27;96342;-61
2023/04/08 09:27:00;;;;;;;;;23.00;21.00;;;;;17.14;37.85;99305.38;6194587;27;96673;-61
2023/04/08 09:30:14;;;;;;;;;27.00;25.00;;;;;16.76;37.49;99306.25;6247339;27;98422;-61
2023/04/08 09:33:17;;;;;;;;;27.20;23.20;;;;;16.62;37.92;99307.69;6268612;27;98356;-61
2023/04/08 09:36:21;;;;;;;;;27.00;24.25;;;;;16.50;38.32;99306.94;6251177;27;96913;-61
2023/04/08 09:39:25;;;;;;;;;26.80;24.80;;;;;16.44;38.68;99314.19;6248211;27;96645;-61
2023/04/08 09:42:29;;;;;;;;;30.40;26.40;;;;;16.36;38.76;99311.91;6272023;27;96568;-61
2023/04/08 09:45:36;;;;;;;;;34.00;28.00;;;;;16.24;39.38;99309.25;6299030;27;97629;-61
2023/04/08 09:48:42;;;;;;;;;31.60;29.60;;;;;15.82;39.45;99246.31;6257789;27;96674;-61
2023/04/08 09:51:53;;;;;;;;;28.80;26.40;;;;;16.25;39.19;99305.47;6287049;27;96436;-61
2023/04/08 09:55:03;;;;;;;;;28.00;27.00;;;;;15.91;38.29;99303.81;6256997;27;96369;-61
2023/04/08 09:58:15;;;;;;;;;31.00;27.50;;;;;15.41;39.69;99318.09;6291283;27;96273;-61
2023/04/08 10:01:30;;;;;;;;;29.00;27.40;;;;;15.08;40.76;99315.28;6234412;27;96680;-61
2023/04/08 10:04:38;;;;;;;;;30.25;26.25;;;;;15.06;41.16;99311.97;6261821;27;96940;-61
2023/04/08 10:07:42;;;;;;;;;33.75;29.00;;;;;14.84;41.06;99319.94;6272979;27;96570;-61
2023/04/08 10:10:47;;;;;;;;;32.20;30.20;;;;;14.43;42.28;99323.59;6257026;27;96340;-61
2023/04/08 10:13:51;;;;;;;;;34.20;30.00;;;;;14.28;42.58;99329.47;6258622;27;96956;-61
2023/04/08 10:17:24;;;;;;;;;30.00;28.60;;;;;14.17;42.40;99324.84;6208336;27;97225;-61
2023/04/08 10:20:44;;;;;;;;;32.67;29.00;;;;;13.97;43.06;99321.66;6229716;27;97504;-60
2023/04/08 10:23:58;;;;;;;;;31.60;30.00;;;;;13.89;43.37;99325.53;6200687;27;96270;-60
2023/04/08 10:27:05;;;;;;;;;32.40;30.00;;;;;13.91;43.70;99319.06;6226609;27;96458;-60
2023/04/08 10:30:39;;;;;;;;;34.25;29.50;;;;;13.82;44.12;99319.41;6211966;27;96872;-62
2023/04/08 10:33:43;;;;;;;;;35.20;32.20;;;;;13.71;44.32;99322.91;6185788;27;96796;-61
2023/04/08 10:36:48;;;;;;;;;29.60;24.80;;;;;13.58;44.51;99317.69;6184340;27;96481;-60
2023/04/08 10:39:54;;;;;;;;;27.40;25.60;;;;;13.53;44.62;99335.66;6192596;27;96376;-60
2023/04/08 10:42:59;;;;;;;;;28.80;25.00;;;;;13.30;44.78;99329.09;6188589;27;96816;-61
2023/04/08 10:46:03;;;;;;;;;34.80;30.80;;;;;13.03;45.12;99341.28;6257430;27;96885;-61
2023/04/08 10:49:07;;;;;;;;;31.40;30.00;;;;;12.55;46.34;99327.66;6191401;27;96583;-61
2023/04/08 10:52:11;;;;;;;;;28.80;26.00;;;;;12.29;46.86;99333.31;6234094;27;96253;-61
2023/04/08 10:55:15;;;;;;;;;28.00;26.80;;;;;11.88;47.89;99340.09;6243927;27;97363;-61
2023/04/08 10:58:20;;;;;;;;;40.00;32.50;;;;;11.71;48.88;99334.38;6271448;27;97252;-61
2023/04/08 11:01:23;;;;;;;;;32.75;30.00;;;;;11.61;49.23;99339.41;6216999;27;96331;-61
2023/04/08 11:04:27;;;;;;;;;34.00;30.00;;;;;11.61;49.12;99338.59;6188910;27;96207;-61
2023/04/08 11:07:30;;;;;;;;;37.40;32.00;;;;;11.69;48.74;99335.63;6219942;27;96682;-61
2023/04/08 11:10:37;;;;;;;;;32.00;28.00;;;;;11.47;49.02;99323.50;6221534;27;98027;-62
2023/04/08 11:13:45;;;;;;;;;35.75;32.25;;;;;11.68;48.71;99331.25;6215844;27;97058;-60
2023/04/08 11:16:56;;;;;;;;;32.20;28.60;;;;;11.56;48.88;99330.31;6175687;27;96451;-61
2023/04/08 11:20:04;;;;;;;;;27.00;26.75;;;;;11.58;49.18;99325.53;6188072;27;96373;-60
2023/04/08 11:23:14;;;;;;;;;32.75;30.00;;;;;11.59;49.50;99336.09;6193337;27;96981;-62
2023/04/08 11:26:18;;;;;;;;;30.25;29.75;;;;;11.61;49.47;99327.78;6289667;27;97117;-61
2023/04/08 11:29:23;;;;;;;;;41.25;34.00;;;;;11.58;49.63;99329.03;6285324;27;96497;-61
2023/04/08 11:32:29;;;;;;;;;35.00;31.00;;;;;11.61;49.78;99328.63;6283494;27;96338;-61
2023/04/08 11:35:32;;;;;;;;;34.60;29.00;;;;;11.51;50.38;99325.56;6285518;27;98697;-61
2023/04/08 11:38:39;;;;;;;;;33.50;31.00;;;;;11.55;50.25;99329.47;6273935;27;96517;-61
2023/04/08 11:41:43;;;;;;;;;37.00;31.00;;;;;11.51;49.98;99338.22;6294486;27;97060;-61
2023/04/08 11:44:48;;;;;;;;;30.00;27.00;;;;;11.60;50.08;99335.06;6294734;27;97258;-61
2023/04/08 11:47:52;;;;;;;;;32.00;29.80;;;;;11.63;50.26;99337.31;6271306;27;97229;-61
2023/04/08 11:51:03;;;;;;;;;34.20;31.40;;;;;11.58;50.26;99329.03;6295995;27;96851;-61
2023/04/08 11:54:07;;;;;;;;;33.00;27.60;;;;;11.45;50.40;99331.00;6272483;27;98623;-62
2023/04/08 11:57:10;;;;;;;;;33.00;29.60;;;;;11.41;50.75;99321.66;6297917;27;98008;-61
2023/04/08 12:00:15;;;;;;;;;40.40;35.00;;;;;11.29;51.40;99316.94;6297926;27;98433;-61
2023/04/08 12:03:18;;;;;;;;;40.00;33.25;;;;;11.19;51.58;99324.69;6307627;27;97485;-61
2023/04/08 12:06:22;;;;;;;;;40.00;34.00;;;;;11.12;52.21;99321.19;6307445;27;96555;-61
2023/04/08 12:09:26;;;;;;;;;30.50;27.25;;;;;11.00;52.70;99319.38;6308883;27;96357;-61
2023/04/08 12:12:29;;;;;;;;;37.00;33.00;;;;;11.16;52.97;99318.88;6306434;27;96632;-61
2023/04/08 12:15:34;;;;;;;;;30.80;27.20;;;;;11.31;52.54;99322.13;6315131;27;97289;-61
2023/04/08 12:18:40;;;;;;;;;39.60;33.00;;;;;11.48;52.20;99317.06;6310825;27;96969;-61
2023/04/08 12:21:43;;;;;;;;;36.20;30.40;;;;;11.36;52.29;99295.31;6289654;27;97382;-62
2023/04/08 12:24:47;;;;;;;;;32.40;29.00;;;;;11.60;52.41;99318.03;6293644;27;97285;-61
2023/04/08 12:27:51;;;;;;;;;33.00;30.00;;;;;11.59;51.89;99316.34;6214857;27;96872;-61
2023/04/08 12:30:55;;;;;;;;;34.60;29.40;;;;;11.70;51.55;99324.59;6219406;27;97787;-61
2023/04/08 12:33:58;;;;;;;;;27.00;25.00;;;;;11.35;51.65;99320.66;6304463;27;99994;-61
2023/04/08 12:37:02;;;;;;;;;27.20;25.20;;;;;11.32;52.13;99322.97;6261547;27;96792;-61
2023/04/08 12:40:07;;;;;;;;;27.50;24.00;;;;;11.26;52.15;99324.66;6202882;27;96495;-61
2023/04/08 12:43:10;;;;;;;;;33.00;30.00;;;;;11.36;52.25;99325.03;6296296;27;96212;-62
2023/04/08 12:46:15;;;;;;;;;29.00;26.25;;;;;11.30;52.22;99323.19;6339803;27;97011;-63
2023/04/08 12:49:18;;;;;;;;;31.00;29.00;;;;;11.45;52.29;99321.03;6239393;27;97765;-62
2023/04/08 12:52:21;;;;;;;;;32.40;28.00;;;;;11.62;51.90;99314.06;6226668;27;96306;-61
2023/04/08 12:55:25;;;;;;;;;34.00;30.00;;;;;11.62;52.01;99315.94;6298887;27;96268;-62
2023/04/08 12:58:28;;;;;;;;;34.20;30.20;;;;;11.73;52.08;99321.47;6388262;22;98297;-64
2023/04/08 13:01:32;;;;;;;;;33.80;30.00;;;;;11.82;52.13;99326.63;6224336;28;96514;-64
2023/04/08 13:04:36;;;;;;;;;33.00;29.00;;;;;11.81;51.91;99320.41;6217419;28;98697;-64
2023/04/08 13:07:40;;;;;;;;;31.20;29.00;;;;;11.80;51.97;99323.31;6218271;28;98606;-64
2023/04/08 13:10:43;;;;;;;;;33.50;30.00;;;;;11.97;51.97;99319.03;6209479;28;99180;-64
2023/04/08 13:13:47;;;;;;;;;32.40;29.00;;;;;12.07;51.61;99306.66;6235791;28;96853;-64
2023/04/08 13:16:52;;;;;;;;;36.00;30.80;;;;;12.15;51.05;99314.53;6238859;28;96868;-65
2023/04/08 13:19:55;;;;;;;;;32.60;30.00;;;;;12.31;51.23;99313.13;6218239;28;96536;-64
2023/04/08 13:22:59;;;;;;;;;36.00;31.00;;;;;12.48;51.18;99310.66;6218560;27;96684;-64
2023/04/08 13:26:03;;;;;;;;;32.80;29.80;;;;;12.61;50.58;99310.50;6236097;28;97249;-64
2023/04/08 13:29:06;;;;;;;;;28.60;28.60;;;;;12.40;50.45;99319.91;6219685;28;97478;-65
2023/04/08 13:32:11;;;;;;;;;34.40;30.00;;;;;12.39;50.38;99312.84;6237145;28;96716;-64
2023/04/08 13:35:15;;;;;;;;;31.00;27.00;;;;;12.32;50.85;99317.47;6218353;28;98863;-64
2023/04/08 13:38:18;;;;;;;;;24.20;22.80;;;;;12.53;50.75;99314.34;6202131;28;97699;-64
2023/04/08 13:41:21;;;;;;;;;27.60;26.00;;;;;12.96;50.83;99311.56;6215741;28;97300;-65
2023/04/08 13:44:24;;;;;;;;;28.00;26.00;;;;;13.19;49.22;99312.81;6209067;28;96488;-64
2023/04/08 13:47:29;;;;;;;;;32.00;29.00;;;;;13.48;48.68;99309.28;6216056;28;99033;-64
2023/04/08 13:50:33;;;;;;;;;28.00;26.00;;;;;13.65;48.01;99314.84;6234280;28;96447;-65
2023/04/08 13:53:36;;;;;;;;;32.80;26.40;;;;;13.65;48.43;99304.84;6217272;28;96424;-64
2023/04/08 13:56:39;;;;;;;;;32.00;29.00;;;;;13.64;47.59;99310.47;6199193;28;97123;-63
2023/04/08 13:59:43;;;;;;;;;31.00;28.00;;;;;13.40;47.99;99306.88;6211609;28;97236;-64
2023/04/08 14:02:49;;;;;;;;;33.00;30.00;;;;;13.15;48.59;99308.88;6234698;28;96612;-64
2023/04/08 14:05:53;;;;;;;;;32.80;28.80;;;;;13.07;48.81;99306.47;6233651;28;96394;-63
2023/04/08 14:08:56;;;;;;;;;28.50;25.00;;;;;12.93;48.96;99300.38;6233697;28;97436;-63
2023/04/08 14:11:59;;;;;;;;;26.50;25.00;;;;;13.04;48.85;99315.88;6235235;28;96407;-63
2023/04/08 14:15:03;;;;;;;;;31.00;28.40;;;;;13.01;48.83;99308.19;6219556;28;96678;-63